Time;durP1;ratioP1;P1;durP2;ratioP2;P2;SDS_P1;SDS_P2;PMS_P1;PMS_P2;Temp;Humidity;BMP_temperature;BMP_pressure;BME280_temperature;BME280_humidity;BME280_pressure;Samples;Min_cycle;Max_cycle;Signal;HPM_P1;HPM_P2
2021/07/10 00:00:51;;;;;;;24.40;8.73;;;;;;;20.07;79.75;99915.78;3482080;28;20045;-41
2021/07/10 00:02:32;;;;;;;25.77;9.52;;;;;;;20.06;79.35;99909.66;3471956;28;20139;-41
2021/07/10 00:04:13;;;;;;;25.65;10.05;;;;;;;20.07;79.34;99918.41;3469074;28;20144;-41
2021/07/10 00:05:54;;;;;;;32.42;9.40;;;;;;;20.09;79.54;99927.16;3469979;28;20088;-41
2021/07/10 00:07:36;;;;;;;32.90;10.07;;;;;;;20.08;79.25;99915.75;3471328;28;20053;-41
2021/07/10 00:09:17;;;;;;;29.02;9.82;;;;;;;20.08;79.54;99917.53;3482276;28;20572;-41
2021/07/10 00:10:59;;;;;;;30.48;10.02;;;;;;;20.08;79.51;99920.16;3476431;28;20045;-41
2021/07/10 00:12:41;;;;;;;34.58;10.20;;;;;;;20.07;79.26;99919.28;3481668;28;20053;-41
2021/07/10 00:14:22;;;;;;;40.80;11.20;;;;;;;20.07;79.38;99908.75;3478360;28;20041;-41
2021/07/10 00:16:05;;;;;;;32.28;10.50;;;;;;;20.08;79.09;99909.63;3480215;28;20076;-41
2021/07/10 00:17:47;;;;;;;23.58;9.90;;;;;;;20.07;80.50;99913.16;3479927;28;20088;-41
2021/07/10 00:19:28;;;;;;;34.05;9.88;;;;;;;20.05;79.49;99901.78;3477051;28;20053;-41
2021/07/10 00:21:10;;;;;;;32.35;10.85;;;;;;;20.06;79.62;99912.28;3468608;28;20131;-41
2021/07/10 00:22:51;;;;;;;36.63;10.13;;;;;;;20.07;79.93;99907.88;3471826;28;20515;-42
2021/07/10 00:24:33;;;;;;;30.55;10.48;;;;;;;20.07;79.84;99905.25;3468824;28;20541;-41
2021/07/10 00:26:14;;;;;;;29.73;10.57;;;;;;;20.07;79.79;99908.75;3480318;28;20084;-41
2021/07/10 00:27:56;;;;;;;37.35;11.55;;;;;;;20.05;79.76;99905.28;3481221;28;20495;-41
2021/07/10 00:29:37;;;;;;;49.28;11.27;;;;;;;20.02;79.66;99897.44;3471692;28;20112;-41
2021/07/10 00:31:19;;;;;;;24.42;9.75;;;;;;;20.00;80.62;99893.97;3474239;28;20052;-41
2021/07/10 00:33:02;;;;;;;23.15;9.88;;;;;;;19.96;80.86;99891.44;3471079;28;20076;-42
2021/07/10 00:34:44;;;;;;;28.10;9.63;;;;;;;19.92;81.04;99898.56;3477195;28;20518;-41
2021/07/10 00:36:25;;;;;;;18.73;9.00;;;;;;;19.89;81.27;99895.97;3484265;28;20136;-41
2021/07/10 00:38:06;;;;;;;29.55;10.18;;;;;;;19.85;80.09;99892.53;3473010;28;20069;-42
2021/07/10 00:39:48;;;;;;;28.75;9.50;;;;;;;19.87;80.34;99895.16;3472316;28;20186;-41
2021/07/10 00:41:29;;;;;;;29.52;10.07;;;;;;;19.86;80.08;99891.63;3481963;28;20107;-41
2021/07/10 00:43:10;;;;;;;26.23;10.73;;;;;;;19.86;80.30;99894.25;3480072;28;20144;-42
2021/07/10 00:44:51;;;;;;;18.45;8.82;;;;;;;19.85;80.43;99884.63;3484461;28;20378;-41
2021/07/10 00:46:33;;;;;;;26.33;10.25;;;;;;;19.85;80.67;99892.53;3477488;28;20447;-41
2021/07/10 00:48:15;;;;;;;24.63;10.05;;;;;;;19.85;80.60;99889.91;3470443;28;20577;-42
2021/07/10 00:49:56;;;;;;;26.42;10.00;;;;;;;19.86;80.80;99891.63;3478962;28;20090;-41
2021/07/10 00:51:38;;;;;;;22.15;9.27;;;;;;;19.85;80.23;99881.16;3482597;28;20055;-41
2021/07/10 00:53:19;;;;;;;18.92;9.43;;;;;;;19.84;81.14;99884.66;3470615;28;20088;-41
2021/07/10 00:55:00;;;;;;;18.40;8.52;;;;;;;19.81;80.49;99882.91;3474271;28;20123;-41
2021/07/10 00:56:45;;;;;;;27.00;9.50;;;;;;;19.80;79.94;99881.19;3470526;28;20226;-42
2021/07/10 00:58:27;;;;;;;19.50;8.82;;;;;;;19.79;80.00;99870.69;3472474;28;20089;-41
2021/07/10 01:00:12;;;;;;;19.70;8.40;;;;;;;19.77;79.83;99878.63;3470276;28;20523;-41
2021/07/10 01:01:54;;;;;;;18.95;8.63;;;;;;;19.76;80.41;99877.75;3479933;28;20092;-41
2021/07/10 01:03:42;;;;;;;16.42;8.77;;;;;;;19.75;79.62;99868.13;3481663;28;20537;-42
2021/07/10 01:05:24;;;;;;;15.30;8.05;;;;;;;19.74;79.67;99876.94;3471335;28;20093;-41
2021/07/10 01:07:06;;;;;;;16.20;8.27;;;;;;;19.71;79.29;99879.63;3472861;28;20058;-41
2021/07/10 01:08:48;;;;;;;16.70;8.23;;;;;;;19.68;80.04;99881.44;3470712;28;20085;-41
2021/07/10 01:10:29;;;;;;;23.95;8.10;;;;;;;19.66;79.85;99873.59;3478098;28;20167;-41
2021/07/10 01:12:11;;;;;;;17.52;7.85;;;;;;;19.65;80.20;99876.25;3483462;28;20103;-41
2021/07/10 01:13:53;;;;;;;15.60;7.57;;;;;;;19.62;81.10;99869.28;3472010;28;20073;-42
2021/07/10 01:15:34;;;;;;;17.42;7.97;;;;;;;19.61;80.69;99866.69;3470438;28;20425;-41
2021/07/10 01:17:16;;;;;;;18.00;9.02;;;;;;;19.60;80.68;99867.56;3483566;28;20087;-41
2021/07/10 01:18:57;;;;;;;14.15;8.25;;;;;;;19.57;80.53;99858.84;3479651;28;20084;-42
2021/07/10 01:20:46;;;;;;;15.93;8.70;;;;;;;19.56;81.14;99862.38;3483878;28;20135;-42
2021/07/10 01:22:28;;;;;;;20.45;9.15;;;;;;;19.54;81.40;99866.78;3479622;28;20139;-42
2021/07/10 01:24:09;;;;;;;20.63;7.75;;;;;;;19.52;80.90;99862.47;3481245;28;20134;-41
2021/07/10 01:25:52;;;;;;;22.83;9.07;;;;;;;19.49;81.20;99862.53;3480297;28;20493;-41
2021/07/10 01:27:33;;;;;;;17.33;8.60;;;;;;;19.48;81.28;99866.06;3479542;28;20140;-41
2021/07/10 01:29:14;;;;;;;14.18;8.82;;;;;;;19.48;81.23;99868.69;3483669;28;20640;-42
2021/07/10 01:30:56;;;;;;;22.15;8.65;;;;;;;19.47;81.72;99867.81;3480814;28;20132;-42
2021/07/10 01:32:39;;;;;;;18.33;8.07;;;;;;;19.47;81.61;99870.44;3481788;28;20506;-42
2021/07/10 01:34:20;;;;;;;16.17;8.38;;;;;;;19.46;81.90;99866.09;3482426;28;20051;-41
2021/07/10 01:36:03;;;;;;;16.13;7.53;;;;;;;19.45;81.27;99860.84;3480175;28;20520;-41
2021/07/10 01:37:44;;;;;;;16.80;8.97;;;;;;;19.45;81.06;99863.50;3470030;28;20510;-42
2021/07/10 01:39:26;;;;;;;20.20;8.10;;;;;;;19.45;81.18;99851.19;3473699;28;20093;-42
2021/07/10 01:41:07;;;;;;;28.77;9.70;;;;;;;19.45;81.07;99853.81;3470429;28;20092;-42
2021/07/10 01:42:49;;;;;;;20.88;8.65;;;;;;;19.44;81.60;99851.22;3478414;28;20052;-42
2021/07/10 01:44:30;;;;;;;16.67;8.55;;;;;;;19.42;81.28;99848.63;3481863;28;20569;-42
2021/07/10 01:46:11;;;;;;;15.32;8.40;;;;;;;19.41;81.75;99848.66;3481522;28;20076;-42
2021/07/10 01:47:54;;;;;;;19.95;8.55;;;;;;;19.39;81.66;99848.69;3479336;28;20288;-42
2021/07/10 01:49:35;;;;;;;18.45;9.25;;;;;;;19.37;81.59;99853.97;3483563;28;20142;-41
2021/07/10 01:51:17;;;;;;;16.83;8.48;;;;;;;19.36;82.15;99851.38;3481586;28;20389;-42
2021/07/10 01:52:59;;;;;;;19.55;9.23;;;;;;;19.34;81.88;99850.56;3475218;28;20506;-42
2021/07/10 01:54:41;;;;;;;19.52;9.57;;;;;;;19.33;81.20;99848.81;3472659;28;20049;-42
2021/07/10 01:56:22;;;;;;;26.67;9.73;;;;;;;19.33;80.68;99854.06;3471499;28;20079;-42
2021/07/10 01:58:04;;;;;;;19.10;9.80;;;;;;;19.33;80.93;99849.66;3471723;28;20076;-42
2021/07/10 01:59:46;;;;;;;18.17;9.90;;;;;;;19.33;81.38;99843.53;3473566;28;20045;-42
2021/07/10 02:01:27;;;;;;;22.40;9.38;;;;;;;19.31;81.50;99846.19;3469718;28;20476;-42
2021/07/10 02:03:09;;;;;;;17.85;9.38;;;;;;;19.26;81.58;99855.06;3472177;28;20045;-42
2021/07/10 02:04:51;;;;;;;19.58;9.32;;;;;;;19.23;81.35;99845.50;3469903;28;20056;-42
2021/07/10 02:06:34;;;;;;;19.30;9.10;;;;;;;19.25;81.47;99848.97;3472460;28;20060;-42
2021/07/10 02:08:15;;;;;;;17.08;8.90;;;;;;;19.28;81.60;99842.75;3469965;28;20076;-42
2021/07/10 02:09:56;;;;;;;14.27;8.30;;;;;;;19.30;81.74;99849.75;3483178;28;20077;-42
2021/07/10 02:11:38;;;;;;;23.27;9.30;;;;;;;19.31;81.48;99846.19;3479119;28;20134;-42
2021/07/10 02:13:20;;;;;;;19.88;9.00;;;;;;;19.34;81.84;99845.28;3469910;28;20049;-42
2021/07/10 02:15:02;;;;;;;16.80;8.15;;;;;;;19.36;81.88;99846.13;3475543;28;20048;-42
2021/07/10 02:16:47;;;;;;;19.05;9.15;;;;;;;19.38;82.19;99845.19;3483328;28;20107;-42
2021/07/10 02:18:28;;;;;;;15.05;8.73;;;;;;;19.40;81.97;99841.66;3479254;28;20194;-42
2021/07/10 02:20:11;;;;;;;17.42;8.90;;;;;;;19.38;81.94;99845.19;3481358;28;20136;-42
2021/07/10 02:21:53;;;;;;;17.20;9.15;;;;;;;19.38;82.23;99841.69;3481451;28;20060;-42
2021/07/10 02:23:35;;;;;;;14.98;8.77;;;;;;;19.36;81.82;99840.84;3478696;28;20081;-42
2021/07/10 02:25:18;;;;;;;15.77;9.23;;;;;;;19.37;81.48;99853.97;3483406;28;20072;-42
2021/07/10 02:26:59;;;;;;;15.20;9.32;;;;;;;19.34;81.64;99848.78;3480992;28;20041;-42
2021/07/10 02:28:40;;;;;;;18.63;8.95;;;;;;;19.36;82.37;99846.13;3482613;28;20552;-42
2021/07/10 02:30:26;;;;;;;17.33;8.95;;;;;;;19.36;82.63;99849.59;3479154;28;20080;-42
2021/07/10 02:32:07;;;;;;;16.23;8.18;;;;;;;19.36;82.70;99846.97;3481394;28;20077;-42
2021/07/10 02:33:49;;;;;;;15.38;8.85;;;;;;;19.38;82.72;99844.31;3470090;28;20049;-42
2021/07/10 02:35:31;;;;;;;22.42;8.30;;;;;;;19.41;83.13;99851.31;3471145;28;20072;-42
2021/07/10 02:37:13;;;;;;;17.30;8.90;;;;;;;19.39;83.09;99846.06;3469433;28;20172;-42
2021/07/10 02:38:55;;;;;;;18.88;8.88;;;;;;;19.39;83.18;99838.19;3478982;28;20468;-42
2021/07/10 02:40:36;;;;;;;17.65;9.02;;;;;;;19.40;82.78;99846.94;3481396;28;20072;-42
2021/07/10 02:42:17;;;;;;;21.00;9.27;;;;;;;19.40;82.68;99839.03;3480559;28;20049;-42
2021/07/10 02:43:59;;;;;;;20.27;8.73;;;;;;;19.40;82.42;99841.66;3479856;28;20494;-42
2021/07/10 02:45:41;;;;;;;19.90;9.35;;;;;;;19.40;82.56;99842.53;3469762;28;20076;-42
2021/07/10 02:47:22;;;;;;;30.30;10.27;;;;;;;19.44;82.59;99854.75;3473431;28;20045;-42
2021/07/10 02:49:04;;;;;;;15.13;8.07;;;;;;;19.48;82.00;99848.50;3483146;28;20056;-41
2021/07/10 02:50:45;;;;;;;23.27;8.93;;;;;;;19.52;82.17;99850.16;3470941;28;20104;-42
2021/07/10 02:52:27;;;;;;;14.85;8.20;;;;;;;19.59;82.82;99844.81;3470195;28;20588;-41
2021/07/10 02:54:09;;;;;;;17.70;8.55;;;;;;;19.64;83.40;99854.31;3482893;28;20079;-42
2021/07/10 02:55:51;;;;;;;19.10;8.38;;;;;;;19.71;83.21;99855.94;3478451;28;20044;-42
2021/07/10 02:57:32;;;;;;;19.45;8.40;;;;;;;19.73;81.88;99854.13;3482817;28;20088;-42
2021/07/10 02:59:14;;;;;;;20.88;8.95;;;;;;;19.80;82.00;99851.38;3473275;28;20050;-41
2021/07/10 03:00:55;;;;;;;14.90;7.93;;;;;;;19.79;81.76;99844.38;3470663;28;20092;-41
2021/07/10 03:02:37;;;;;;;24.45;8.45;;;;;;;19.82;81.40;99852.25;3480078;28;20198;-42
2021/07/10 03:04:18;;;;;;;27.00;9.25;;;;;;;19.86;81.78;99846.00;3479236;28;20140;-42
2021/07/10 03:06:00;;;;;;;20.15;8.88;;;;;;;19.91;82.15;99842.38;3482208;28;20106;-43
2021/07/10 03:07:43;;;;;;;19.58;7.93;;;;;;;19.97;82.38;99843.13;3478515;28;20136;-41
2021/07/10 03:09:24;;;;;;;18.40;8.50;;;;;;;20.05;82.41;99852.59;3482957;28;20143;-44
2021/07/10 03:11:06;;;;;;;18.13;8.45;;;;;;;20.10;82.33;99852.50;3478356;28;20132;-43
2021/07/10 03:12:48;;;;;;;18.58;8.35;;;;;;;20.18;82.88;99847.91;3481757;28;20080;-41
2021/07/10 03:14:29;;;;;;;16.92;8.38;;;;;;;20.25;82.08;99846.00;3479377;28;20080;-43
2021/07/10 03:16:11;;;;;;;18.10;8.55;;;;;;;20.32;82.40;99847.59;3479628;28;20504;-43
2021/07/10 03:17:53;;;;;;;21.92;8.23;;;;;;;20.39;81.14;99843.91;3469024;28;20060;-43
2021/07/10 03:19:34;;;;;;;21.30;7.93;;;;;;;20.46;80.87;99842.00;3471831;28;20147;-41
2021/07/10 03:21:16;;;;;;;19.67;8.80;;;;;;;20.55;81.27;99838.28;3482980;28;20081;-41
2021/07/10 03:22:58;;;;;;;19.40;8.38;;;;;;;20.62;81.48;99834.59;3480507;28;20137;-43
2021/07/10 03:24:40;;;;;;;25.52;8.77;;;;;;;20.73;82.15;99844.84;3481641;28;20072;-41
2021/07/10 03:26:21;;;;;;;21.15;9.07;;;;;;;20.79;81.85;99842.97;3470425;28;20084;-41
2021/07/10 03:28:03;;;;;;;26.88;9.25;;;;;;;20.85;80.71;99840.19;3470871;28;20081;-43
2021/07/10 03:29:44;;;;;;;18.77;8.88;;;;;;;20.91;78.30;99847.06;3482113;28;20144;-41
2021/07/10 03:31:25;;;;;;;18.95;8.43;;;;;;;20.98;78.76;99846.00;3478183;28;20098;-41
2021/07/10 03:33:08;;;;;;;30.88;9.25;;;;;;;21.06;79.11;99835.25;3482715;28;20596;-41
2021/07/10 03:34:50;;;;;;;21.08;8.65;;;;;;;21.13;78.83;99844.72;3473841;28;20108;-41
2021/07/10 03:36:31;;;;;;;17.20;8.23;;;;;;;21.21;78.37;99839.25;3469604;28;20083;-41
2021/07/10 03:38:13;;;;;;;13.50;7.40;;;;;;;21.29;78.82;99833.75;3471306;28;20144;-42
2021/07/10 03:39:54;;;;;;;17.95;7.40;;;;;;;21.37;77.66;99832.63;3469062;28;20494;-41
2021/07/10 03:41:35;;;;;;;17.13;8.02;;;;;;;21.46;76.82;99837.66;3480981;28;20076;-41
2021/07/10 03:43:17;;;;;;;15.43;7.85;;;;;;;21.55;77.92;99839.16;3477640;28;20077;-41
2021/07/10 03:44:58;;;;;;;15.40;8.07;;;;;;;21.64;77.33;99838.94;3468972;28;20132;-41
2021/07/10 03:46:39;;;;;;;20.90;7.93;;;;;;;21.75;76.30;99841.25;3472560;28;20050;-42
2021/07/10 03:48:21;;;;;;;13.57;7.43;;;;;;;21.84;76.66;99837.47;3469715;28;20239;-41
2021/07/10 03:50:03;;;;;;;14.00;7.90;;;;;;;21.94;76.40;99838.06;3471493;28;20146;-41
2021/07/10 03:51:44;;;;;;;21.38;8.65;;;;;;;22.05;75.37;99833.31;3469042;28;20528;-42
2021/07/10 03:53:26;;;;;;;15.93;8.35;;;;;;;22.14;75.13;99840.97;3469356;28;20529;-42
2021/07/10 03:55:11;;;;;;;17.75;8.63;;;;;;;22.24;74.56;99836.25;3472601;28;20127;-41
2021/07/10 03:56:52;;;;;;;15.55;8.98;;;;;;;22.35;73.63;99838.56;3482489;28;20075;-42
2021/07/10 03:58:33;;;;;;;12.32;7.47;;;;;;;22.46;74.40;99835.59;3470882;28;20053;-41
2021/07/10 04:00:19;;;;;;;18.05;8.35;;;;;;;22.54;73.94;99839.72;3469089;28;20076;-42
2021/07/10 04:02:00;;;;;;;14.52;8.05;;;;;;;22.65;73.58;99835.84;3471273;28;20080;-41
2021/07/10 04:03:41;;;;;;;16.13;8.15;;;;;;;22.74;73.79;99833.78;3470024;28;20087;-41
2021/07/10 04:05:23;;;;;;;12.35;8.13;;;;;;;22.85;73.05;99829.88;3481412;28;20080;-42
2021/07/10 04:07:04;;;;;;;12.43;8.13;;;;;;;22.93;73.12;99834.00;3477834;28;20076;-41
2021/07/10 04:08:46;;;;;;;11.95;7.57;;;;;;;23.05;71.40;99826.56;3482244;28;20139;-42
2021/07/10 04:10:28;;;;;;;13.85;8.80;;;;;;;23.14;71.85;99818.28;3473180;28;20448;-41
2021/07/10 04:12:09;;;;;;;15.73;8.10;;;;;;;23.24;71.32;99824.13;3469272;28;20053;-41
2021/07/10 04:13:50;;;;;;;16.23;7.65;;;;;;;23.34;70.19;99814.94;3470085;28;20087;-41
2021/07/10 04:15:32;;;;;;;13.45;7.57;;;;;;;23.44;70.41;99815.50;3471600;28;20457;-41
2021/07/10 04:17:13;;;;;;;15.93;7.35;;;;;;;23.52;69.83;99819.59;3481862;28;20084;-41
2021/07/10 04:18:54;;;;;;;13.10;7.65;;;;;;;23.62;69.19;99816.59;3475848;28;20041;-41
2021/07/10 04:20:36;;;;;;;12.73;8.07;;;;;;;23.72;68.50;99825.91;3468378;28;20479;-41
2021/07/10 04:22:17;;;;;;;17.15;6.80;;;;;;;23.81;68.15;99816.75;3476327;28;20083;-42
2021/07/10 04:23:59;;;;;;;12.27;8.13;;;;;;;23.90;69.13;99822.53;3481171;28;20103;-41
2021/07/10 04:25:40;;;;;;;14.45;6.72;;;;;;;24.00;68.53;99817.75;3478962;28;20105;-41
2021/07/10 04:27:22;;;;;;;9.30;6.45;;;;;;;24.08;67.42;99812.19;3478459;28;20514;-42
2021/07/10 04:29:03;;;;;;;12.85;6.53;;;;;;;24.18;66.38;99810.03;3481276;28;20466;-43
2021/07/10 04:30:44;;;;;;;8.50;6.40;;;;;;;24.25;66.31;99803.56;3477784;28;20231;-42
2021/07/10 04:32:26;;;;;;;10.68;6.35;;;;;;;24.34;65.89;99805.84;3481916;28;20525;-42
2021/07/10 04:34:08;;;;;;;9.90;6.93;;;;;;;24.42;65.32;99802.88;3480071;28;20475;-42
2021/07/10 04:35:49;;;;;;;14.13;6.68;;;;;;;24.53;65.52;99802.44;3481487;28;20045;-42
2021/07/10 04:37:31;;;;;;;12.98;6.50;;;;;;;24.62;64.63;99804.69;3478203;28;20496;-42
2021/07/10 04:39:13;;;;;;;14.65;6.97;;;;;;;24.71;64.30;99806.94;3479993;28;20077;-42
2021/07/10 04:40:54;;;;;;;14.77;6.82;;;;;;;24.82;64.77;99803.88;3468673;28;20081;-42
2021/07/10 04:42:36;;;;;;;8.88;5.80;;;;;;;24.91;64.75;99798.16;3471872;28;20084;-42
2021/07/10 04:44:17;;;;;;;14.00;6.57;;;;;;;25.02;65.24;99798.56;3482158;28;20077;-43
2021/07/10 04:45:58;;;;;;;16.48;6.57;;;;;;;25.13;63.02;99798.09;3477411;28;20091;-42
2021/07/10 04:47:40;;;;;;;7.80;5.57;;;;;;;25.22;61.47;99791.50;3481724;28;20104;-42
2021/07/10 04:49:21;;;;;;;16.52;6.32;;;;;;;25.33;59.36;99791.03;3469828;28;20147;-42
2021/07/10 04:51:02;;;;;;;19.13;6.00;;;;;;;25.40;58.33;99795.13;3470950;28;20080;-42
2021/07/10 04:52:44;;;;;;;11.88;4.97;;;;;;;25.48;58.52;99786.78;3466625;28;20081;-42
2021/07/10 04:54:26;;;;;;;15.70;6.05;;;;;;;25.56;58.40;99793.50;3470425;28;20056;-42
2021/07/10 04:56:07;;;;;;;13.80;5.82;;;;;;;25.64;57.62;99793.19;3468181;28;20080;-42
2021/07/10 04:57:50;;;;;;;16.80;5.95;;;;;;;25.72;56.79;99796.31;3475246;28;20509;-41
2021/07/10 04:59:31;;;;;;;15.35;5.80;;;;;;;25.80;55.94;99790.66;3481264;28;20469;-42
2021/07/10 05:01:13;;;;;;;20.33;5.88;;;;;;;25.85;56.22;99793.97;3470725;28;20521;-42
2021/07/10 05:02:54;;;;;;;14.48;5.57;;;;;;;25.92;54.60;99792.72;3470871;28;20192;-42
2021/07/10 05:04:36;;;;;;;13.68;5.60;;;;;;;25.97;54.90;99797.81;3467729;28;20049;-42
2021/07/10 05:06:17;;;;;;;7.53;5.53;;;;;;;26.03;54.95;99794.88;3471495;28;20580;-42
2021/07/10 05:08:01;;;;;;;6.53;5.10;;;;;;;26.12;55.46;99791.75;3467901;28;20127;-42
2021/07/10 05:09:43;;;;;;;11.48;5.07;;;;;;;26.19;54.87;99787.00;3475398;28;20076;-42
2021/07/10 05:11:25;;;;;;;10.77;5.75;;;;;;;26.26;54.20;99787.63;3483137;28;20052;-43
2021/07/10 05:13:12;;;;;;;11.70;5.60;;;;;;;26.33;54.52;99789.88;3483251;28;20512;-42
2021/07/10 05:14:53;;;;;;;13.95;5.45;;;;;;;26.39;53.38;99786.03;3481926;28;20494;-42
2021/07/10 05:16:35;;;;;;;27.63;6.90;;;;;;;26.48;54.62;99785.63;3470191;28;20092;-42
2021/07/10 05:18:16;;;;;;;19.77;5.75;;;;;;;26.57;53.63;99784.25;3472870;28;20095;-42
2021/07/10 05:19:58;;;;;;;10.55;5.60;;;;;;;26.62;52.66;99792.03;3470240;28;20088;-42
2021/07/10 05:21:39;;;;;;;10.70;5.82;;;;;;;26.69;53.33;99788.97;3473932;28;20053;-42
2021/07/10 05:23:20;;;;;;;9.88;5.43;;;;;;;26.79;52.32;99789.34;3471215;28;20144;-42
2021/07/10 05:25:03;;;;;;;10.38;4.82;;;;;;;26.88;52.30;99790.69;3471932;28;20057;-42
2021/07/10 05:26:44;;;;;;;14.32;5.38;;;;;;;26.98;53.21;99791.97;3472161;28;20056;-42
2021/07/10 05:28:26;;;;;;;11.63;5.47;;;;;;;27.10;53.28;99796.66;3483714;28;20087;-42
2021/07/10 05:30:10;;;;;;;13.55;5.47;;;;;;;27.20;54.07;99797.00;3477148;28;20096;-42
2021/07/10 05:31:51;;;;;;;8.00;4.82;;;;;;;27.28;51.60;99793.94;3470270;28;20072;-42
2021/07/10 05:33:32;;;;;;;15.82;5.72;;;;;;;27.37;53.87;99798.78;3472732;28;20068;-42
2021/07/10 05:35:18;;;;;;;8.75;5.07;;;;;;;27.44;50.80;99791.31;3471034;28;20514;-42
2021/07/10 05:36:59;;;;;;;10.43;5.03;;;;;;;27.51;52.43;99787.38;3480526;28;20052;-42
2021/07/10 05:38:41;;;;;;;7.22;4.97;;;;;;;27.61;51.77;99788.63;3480226;28;20510;-42
2021/07/10 05:40:23;;;;;;;9.45;5.00;;;;;;;27.68;51.84;99791.78;3470406;28;20123;-42
2021/07/10 05:42:04;;;;;;;10.45;5.50;;;;;;;27.76;52.96;99788.72;3472381;28;20092;-43
2021/07/10 05:43:46;;;;;;;7.95;5.22;;;;;;;27.84;51.27;99799.81;3470011;28;20475;-42
2021/07/10 05:45:27;;;;;;;6.75;4.78;;;;;;;27.90;49.64;99790.63;3478612;28;20091;-42
2021/07/10 05:47:09;;;;;;;8.43;4.97;;;;;;;27.94;48.62;99802.81;3482114;28;20092;-42
2021/07/10 05:48:50;;;;;;;8.77;5.28;;;;;;;27.97;48.73;99814.19;3471581;28;20069;-42
2021/07/10 05:50:31;;;;;;;9.38;4.80;;;;;;;27.99;48.79;99806.09;3472288;28;20537;-42
2021/07/10 05:52:13;;;;;;;10.77;5.18;;;;;;;28.04;49.14;99802.22;3468333;28;20511;-42
2021/07/10 05:53:54;;;;;;;11.57;4.85;;;;;;;28.11;48.68;99801.84;3472279;28;20046;-42
2021/07/10 05:55:36;;;;;;;9.73;5.28;;;;;;;28.19;48.79;99807.63;3469926;28;20054;-42
2021/07/10 05:57:18;;;;;;;10.98;5.60;;;;;;;28.25;49.07;99793.94;3478245;28;20083;-42
2021/07/10 05:58:59;;;;;;;26.75;6.55;;;;;;;28.35;48.89;99799.63;3482049;28;20473;-42
2021/07/10 06:00:40;;;;;;;13.18;5.70;;;;;;;28.41;47.69;99801.97;3480812;28;20049;-43
2021/07/10 06:02:22;;;;;;;13.02;5.20;;;;;;;28.45;48.21;99798.16;3479366;28;20525;-42
2021/07/10 06:04:04;;;;;;;16.00;5.65;;;;;;;28.48;48.37;99806.00;3482487;28;20060;-42
2021/07/10 06:05:45;;;;;;;15.45;5.80;;;;;;;28.55;49.61;99803.81;3477666;28;20081;-42
2021/07/10 06:07:26;;;;;;;8.35;5.10;;;;;;;28.64;49.42;99805.94;3483320;28;20240;-42
2021/07/10 06:09:08;;;;;;;14.85;5.90;;;;;;;28.72;48.36;99809.00;3478878;28;20156;-42
2021/07/10 06:10:50;;;;;;;13.80;5.35;;;;;;;28.80;47.18;99804.06;3482458;28;20073;-43
2021/07/10 06:12:31;;;;;;;14.10;5.80;;;;;;;28.86;47.91;99804.66;3482569;28;20072;-42
2021/07/10 06:14:12;;;;;;;8.30;5.50;;;;;;;28.96;47.25;99808.53;3479540;28;20462;-42
2021/07/10 06:15:58;;;;;;;7.70;5.38;;;;;;;29.07;46.75;99802.53;3482692;28;20430;-42
2021/07/10 06:17:41;;;;;;;9.30;4.82;;;;;;;29.13;47.62;99808.38;3478798;28;20136;-42
2021/07/10 06:19:22;;;;;;;10.65;5.30;;;;;;;29.21;46.19;99807.03;3483337;28;20041;-42
2021/07/10 06:21:04;;;;;;;13.70;5.35;;;;;;;29.27;46.31;99801.31;3479325;28;20080;-42
2021/07/10 06:22:48;;;;;;;6.93;4.95;;;;;;;29.32;46.42;99797.38;3480774;28;20091;-44
2021/07/10 06:24:29;;;;;;;9.38;5.45;;;;;;;29.43;46.40;99799.41;3480548;28;20145;-42
2021/07/10 06:26:11;;;;;;;8.70;5.28;;;;;;;29.48;45.37;99799.94;3478990;28;20132;-42
2021/07/10 06:27:53;;;;;;;9.68;4.90;;;;;;;29.51;44.91;99802.44;3483277;28;20142;-42
2021/07/10 06:29:34;;;;;;;6.38;4.90;;;;;;;29.47;45.27;99803.59;3477812;28;20091;-42
2021/07/10 06:31:15;;;;;;;9.45;4.53;;;;;;;29.50;44.26;99806.09;3483321;28;20499;-42
2021/07/10 06:32:57;;;;;;;6.07;4.70;;;;;;;29.53;44.09;99805.03;3472174;28;20136;-42
2021/07/10 06:34:38;;;;;;;7.47;4.82;;;;;;;29.57;43.50;99806.56;3470187;28;20520;-43
2021/07/10 06:36:19;;;;;;;9.32;5.13;;;;;;;29.62;43.57;99804.47;3471180;28;20083;-42
2021/07/10 06:38:01;;;;;;;10.40;5.50;;;;;;;29.72;43.70;99800.25;3471209;28;20080;-43
2021/07/10 06:39:42;;;;;;;8.60;5.15;;;;;;;29.83;43.40;99799.56;3482930;28;20533;-42
2021/07/10 06:41:24;;;;;;;7.57;4.93;;;;;;;29.94;44.32;99806.91;3475900;28;20550;-42
2021/07/10 06:43:06;;;;;;;7.05;4.65;;;;;;;30.02;43.23;99801.91;3469668;28;20057;-42
2021/07/10 06:44:48;;;;;;;5.20;4.57;;;;;;;30.10;43.63;99807.63;3477836;28;20493;-42
2021/07/10 06:46:29;;;;;;;10.15;4.70;;;;;;;30.18;43.85;99806.31;3479757;28;20460;-43
2021/07/10 06:48:11;;;;;;;7.25;4.63;;;;;;;30.31;43.82;99809.88;3480518;28;20048;-43
2021/07/10 06:49:52;;;;;;;11.65;4.82;;;;;;;30.41;42.22;99805.63;3478541;28;20515;-42
2021/07/10 06:51:34;;;;;;;10.32;5.20;;;;;;;30.49;42.13;99808.66;3482672;28;20055;-43
2021/07/10 06:53:21;;;;;;;9.65;4.82;;;;;;;30.59;43.01;99802.69;3475629;28;20080;-43
2021/07/10 06:55:04;;;;;;;10.25;4.82;;;;;;;30.61;41.00;99809.63;3469613;28;20073;-43
2021/07/10 06:56:46;;;;;;;9.05;4.43;;;;;;;30.66;42.33;99806.66;3471902;28;20060;-44
2021/07/10 06:58:27;;;;;;;5.90;4.72;;;;;;;30.66;41.75;99814.69;3470676;28;20083;-43
2021/07/10 07:00:10;;;;;;;14.13;4.72;;;;;;;30.72;41.85;99810.72;3471261;28;20092;-43
2021/07/10 07:01:52;;;;;;;16.15;5.30;;;;;;;30.87;43.00;99810.56;3471643;28;20123;-43
2021/07/10 07:03:33;;;;;;;10.52;4.97;;;;;;;30.92;40.92;99812.09;3482919;28;20053;-43
2021/07/10 07:05:15;;;;;;;10.27;4.55;;;;;;;30.99;39.74;99808.03;3478546;28;20048;-42
2021/07/10 07:06:56;;;;;;;12.98;4.38;;;;;;;31.09;39.38;99808.25;3482904;28;20095;-43
2021/07/10 07:08:38;;;;;;;7.78;4.10;;;;;;;31.15;38.23;99811.34;3470735;28;20456;-43
2021/07/10 07:10:19;;;;;;;8.43;4.45;;;;;;;31.21;39.23;99805.59;3470649;28;20061;-43
2021/07/10 07:12:01;;;;;;;7.85;4.72;;;;;;;31.30;38.48;99804.06;3482422;28;20560;-43
2021/07/10 07:13:43;;;;;;;7.05;4.22;;;;;;;31.37;39.33;99801.84;3476242;28;20045;-44
2021/07/10 07:15:24;;;;;;;11.98;4.43;;;;;;;31.37;37.20;99801.84;3469207;28;20126;-44
2021/07/10 07:17:07;;;;;;;17.48;4.63;;;;;;;31.41;37.92;99800.66;3477106;28;20072;-45
2021/07/10 07:18:48;;;;;;;14.18;4.07;;;;;;;31.45;38.12;99804.84;3481489;28;20434;-44
2021/07/10 07:20:30;;;;;;;6.93;4.47;;;;;;;31.47;37.21;99800.22;3479604;28;20049;-44
2021/07/10 07:22:11;;;;;;;6.53;4.32;;;;;;;31.52;37.48;99798.06;3478676;28;20076;-44
2021/07/10 07:23:53;;;;;;;4.78;4.00;;;;;;;31.54;37.89;99800.66;3482538;28;20083;-45
2021/07/10 07:25:34;;;;;;;7.63;4.57;;;;;;;31.62;39.02;99801.81;3475883;28;20486;-44
2021/07/10 07:27:16;;;;;;;7.07;4.18;;;;;;;31.68;37.67;99805.88;3468915;28;20049;-44
2021/07/10 07:28:58;;;;;;;8.98;4.22;;;;;;;31.73;38.10;99806.41;3471397;28;20127;-44
2021/07/10 07:30:39;;;;;;;7.28;4.45;;;;;;;31.74;36.16;99797.41;3469784;28;20140;-44
2021/07/10 07:32:21;;;;;;;5.45;4.18;;;;;;;31.76;36.45;99798.13;3479469;28;20282;-44
2021/07/10 07:34:02;;;;;;;6.57;4.22;;;;;;;31.77;35.37;99794.47;3479286;28;20422;-44
2021/07/10 07:35:44;;;;;;;7.47;4.00;;;;;;;31.63;33.79;99792.78;3468962;28;20140;-44
2021/07/10 07:37:25;;;;;;;11.60;4.13;;;;;;;31.50;35.81;99788.44;3473261;28;20143;-46
2021/07/10 07:39:07;;;;;;;8.43;4.40;;;;;;;31.15;38.70;99794.44;3482462;28;20049;-43
2021/07/10 07:40:49;;;;;;;5.57;4.23;;;;;;;31.15;39.06;99794.44;3476820;28;20052;-44
2021/07/10 07:42:31;;;;;;;9.82;5.05;;;;;;;31.24;38.26;99797.31;3481496;28;20147;-44
2021/07/10 07:44:12;;;;;;;9.73;4.70;;;;;;;31.37;37.85;99789.31;3479581;28;20080;-44
2021/07/10 07:45:54;;;;;;;6.45;4.88;;;;;;;31.48;37.97;99793.03;3478662;28;20140;-44
2021/07/10 07:47:37;;;;;;;7.35;4.70;;;;;;;31.67;37.42;99797.94;3481874;28;20059;-45
2021/07/10 07:49:18;;;;;;;7.72;4.05;;;;;;;31.83;37.32;99795.84;3476522;28;20077;-45
2021/07/10 07:51:02;;;;;;;6.32;4.05;;;;;;;31.95;37.20;99794.97;3482557;28;20126;-44
2021/07/10 07:52:43;;;;;;;6.18;4.60;;;;;;;32.07;37.61;99795.06;3474276;28;20052;-44
2021/07/10 07:54:27;;;;;;;9.95;4.57;;;;;;;32.11;38.60;99794.69;3470273;28;20084;-44